Decoded Metar for KPDK (PEACHTREE/DEKALB in GA, USA) (IATA:PDK) | Meteo·Mobile Aviation Weather
aviador You're here:

KPDK Decoded Metar

PEACHTREE/DEKALB in GA, USA
Report Time2018-09-20 01:53:00
UTC Time2018-09-20 02:15:05
Flight Rules vfr VFR
WindCalm
Visibility9999 m
Phenomena:N/A
Clouds:N/A
Expected CloudBase > 2,000 ft AGL from Temp-Dew spread
CeilingNone
Temp24°C (ISA +11)
Dew Point19°C (74% RH)
QNH1017 hPa
Density Alt2,421 ft
Elevation991 ft
Report Wrong Elevation
Raw Report
KPDK 200153Z 00000KT 10SM CLR 24/19 A3003 RMK AO2 SLP152
T02440189=

Extra information for KPDK:More info

Metar Taf Metar & Taf Last 4 Metars F.Rules Stats Wind Profile Meteogram Temp Stats Airport Information Weather charts Add Link Nearby VenuesMetar ALERT Operation Metar Decoded Social comments

AIRNAV info for KPDK